createdAt,value
2017-10-28T00:00:57.948Z,86.16
2017-10-28T00:03:25.656Z,88.45
2017-10-28T00:05:53.368Z,88.92
2017-10-28T00:08:21.212Z,89.41
2017-10-28T00:10:49.037Z,90.47
2017-10-28T00:13:16.750Z,88.12
2017-10-28T00:15:44.487Z,86.35
2017-10-28T00:18:12.212Z,84.82
2017-10-28T00:20:39.911Z,82.62
2017-10-28T00:23:07.615Z,85.53
2017-10-28T00:25:35.391Z,89.29
2017-10-28T00:28:03.124Z,88.57
2017-10-28T00:30:36.461Z,89.49
2017-10-28T00:33:09.875Z,90.35
2017-10-28T00:35:43.317Z,90.63
2017-10-28T00:38:11.078Z,90.07
2017-10-28T00:40:38.893Z,90.09
2017-10-28T00:43:06.578Z,90.19
2017-10-28T00:45:34.263Z,90.87
2017-10-28T00:48:02.016Z,90.87
2017-10-28T00:50:29.752Z,91.05
2017-10-28T00:52:57.480Z,91.25
2017-10-28T00:55:25.167Z,91.29
2017-10-28T00:57:52.851Z,91.69
2017-10-28T01:00:20.596Z,91.43
2017-10-28T01:02:48.290Z,91.60
2017-10-28T01:05:16.039Z,90.87
2017-10-28T01:07:43.700Z,91.16
2017-10-28T01:10:11.414Z,91.48
2017-10-28T01:12:39.168Z,91.43
2017-10-28T01:15:06.912Z,90.40
2017-10-28T01:17:34.609Z,90.61
2017-10-28T01:20:02.375Z,91.63
2017-10-28T01:22:30.143Z,91.55
2017-10-28T01:24:58.066Z,91.65
2017-10-28T01:27:25.800Z,92.27
2017-10-28T01:29:53.477Z,91.67
2017-10-28T01:32:21.386Z,90.93
2017-10-28T01:34:49.101Z,90.28
2017-10-28T01:37:16.779Z,80.70
2017-10-28T01:39:44.503Z,76.28
2017-10-28T01:42:12.313Z,81.67
2017-10-28T01:44:40.144Z,81.01
2017-10-28T01:47:07.885Z,78.82
2017-10-28T01:49:35.626Z,80.98
2017-10-28T01:52:03.317Z,81.63
2017-10-28T01:54:31.063Z,80.74
2017-10-28T01:56:58.736Z,73.99
2017-10-28T01:59:26.417Z,75.29
2017-10-28T02:01:54.157Z,75.72
2017-10-28T02:04:21.878Z,74.00
2017-10-28T02:06:49.592Z,77.06
2017-10-28T02:09:17.311Z,73.42
2017-10-28T02:11:45.059Z,76.12
2017-10-28T02:14:12.763Z,76.13
2017-10-28T02:16:40.490Z,76.47
2017-10-28T02:19:08.179Z,75.14
2017-10-28T02:21:35.930Z,72.90
2017-10-28T02:24:03.680Z,76.80
2017-10-28T02:26:31.408Z,74.95
2017-10-28T02:28:59.152Z,70.99
2017-10-28T02:31:26.818Z,72.41
2017-10-28T02:33:54.617Z,74.16
2017-10-28T02:36:22.357Z,78.51
2017-10-28T02:38:50.128Z,76.32
2017-10-28T02:41:18.470Z,81.26
2017-10-28T02:43:46.182Z,77.47
2017-10-28T02:46:13.933Z,73.20
2017-10-28T02:48:41.586Z,74.28
2017-10-28T02:51:09.345Z,73.75
2017-10-28T02:53:37.199Z,72.88
2017-10-28T02:56:04.886Z,68.81
2017-10-28T02:58:32.673Z,69.86
2017-10-28T03:01:00.417Z,70.30
2017-10-28T03:03:28.167Z,70.81
2017-10-28T03:05:55.931Z,73.85
2017-10-28T03:08:23.657Z,73.78
2017-10-28T03:10:51.385Z,78.99
2017-10-28T03:13:19.141Z,77.70
2017-10-28T03:15:46.891Z,77.83
2017-10-28T03:18:14.612Z,80.16
2017-10-28T03:20:42.377Z,75.36
2017-10-28T03:23:10.196Z,79.12
2017-10-28T03:25:37.911Z,81.09
2017-10-28T03:28:05.792Z,73.56
2017-10-28T03:30:33.489Z,73.48
2017-10-28T03:33:01.294Z,76.16
2017-10-28T03:35:28.996Z,77.23
2017-10-28T03:37:56.704Z,71.85
2017-10-28T03:40:24.527Z,75.96
2017-10-28T03:42:52.216Z,72.18
2017-10-28T03:45:19.891Z,71.44
2017-10-28T03:47:47.629Z,71.53
2017-10-28T03:50:15.395Z,72.58
2017-10-28T03:52:43.080Z,75.37
2017-10-28T03:55:10.848Z,76.44
2017-10-28T03:57:38.530Z,79.17
2017-10-28T04:00:06.270Z,79.71
2017-10-28T04:02:33.947Z,79.30
2017-10-28T04:05:01.684Z,79.07
2017-10-28T04:07:29.447Z,74.28
2017-10-28T04:09:57.206Z,78.15
2017-10-28T04:12:24.953Z,79.53
2017-10-28T04:14:52.698Z,78.09
2017-10-28T04:17:20.417Z,78.91
2017-10-28T04:19:48.155Z,81.95
2017-10-28T04:22:15.934Z,78.12
2017-10-28T04:24:43.653Z,72.70
2017-10-28T04:27:11.400Z,72.15
2017-10-28T04:29:39.141Z,74.03
2017-10-28T04:32:06.891Z,74.97
2017-10-28T04:34:35.165Z,76.09
2017-10-28T04:37:02.889Z,76.70
2017-10-28T04:39:30.684Z,76.38
2017-10-28T04:41:58.447Z,74.12
2017-10-28T04:44:26.115Z,75.89
2017-10-28T04:46:53.862Z,76.60
2017-10-28T04:49:21.607Z,77.50
2017-10-28T04:51:49.326Z,76.94
2017-10-28T04:54:17.103Z,75.99
2017-10-28T04:56:44.787Z,75.74
2017-10-28T04:59:12.515Z,78.34
2017-10-28T05:01:40.261Z,77.34
2017-10-28T05:04:07.986Z,79.24
2017-10-28T05:06:35.776Z,80.25
2017-10-28T05:09:03.546Z,79.40
2017-10-28T05:11:31.377Z,80.78
2017-10-28T05:13:59.183Z,78.02
2017-10-28T05:16:26.902Z,80.02
2017-10-28T05:18:54.626Z,80.22
2017-10-28T05:21:22.379Z,77.94
2017-10-28T05:23:50.124Z,75.29
2017-10-28T05:26:17.862Z,75.13
2017-10-28T05:28:45.563Z,78.18
2017-10-28T05:31:13.346Z,76.97
2017-10-28T05:33:41.115Z,75.32
2017-10-28T05:36:08.811Z,75.26
2017-10-28T05:38:36.567Z,74.56
2017-10-28T05:41:04.440Z,76.00
2017-10-28T05:43:32.175Z,72.50
2017-10-28T05:45:59.977Z,73.26
2017-10-28T05:48:27.899Z,74.58
2017-10-28T05:50:55.596Z,78.02
2017-10-28T05:53:23.356Z,73.54
2017-10-28T05:55:51.065Z,77.29
2017-10-28T05:58:18.783Z,75.41
2017-10-28T06:00:46.581Z,77.72
2017-10-28T06:03:14.380Z,72.85
2017-10-28T06:05:42.078Z,73.80
2017-10-28T06:08:09.845Z,72.97
2017-10-28T06:10:37.661Z,72.90
2017-10-28T06:13:05.366Z,72.82
2017-10-28T06:15:33.066Z,73.85
2017-10-28T06:18:00.860Z,76.30
2017-10-28T06:20:28.616Z,73.52
2017-10-28T06:22:56.389Z,71.15
2017-10-28T06:25:24.121Z,70.81
2017-10-28T06:27:51.821Z,69.82
2017-10-28T06:30:19.591Z,71.38
2017-10-28T06:32:47.269Z,69.50
2017-10-28T06:35:14.945Z,70.82
2017-10-28T06:37:42.705Z,68.47
2017-10-28T06:40:10.470Z,68.35
2017-10-28T06:42:38.196Z,70.86
2017-10-28T06:45:05.922Z,65.94
2017-10-28T06:47:33.704Z,64.97
2017-10-28T06:50:01.401Z,67.45
2017-10-28T06:52:29.120Z,65.20
2017-10-28T06:54:56.872Z,66.86
2017-10-28T06:57:24.609Z,65.97
2017-10-28T06:59:52.295Z,64.09
2017-10-28T07:02:20.106Z,62.55
2017-10-28T07:04:47.846Z,66.08
2017-10-28T07:07:15.574Z,62.54
2017-10-28T07:09:43.332Z,63.81
2017-10-28T07:12:11.153Z,63.78
2017-10-28T07:14:38.926Z,62.33
2017-10-28T07:17:06.683Z,61.88
2017-10-28T07:19:34.469Z,60.63
2017-10-28T07:22:02.268Z,61.20
2017-10-28T07:24:30.351Z,60.23
2017-10-28T07:26:58.257Z,60.92
2017-10-28T07:29:25.954Z,60.95
2017-10-28T07:31:53.691Z,61.45
2017-10-28T07:34:21.515Z,59.62
2017-10-28T07:36:49.254Z,60.73
2017-10-28T07:39:17.063Z,60.87
2017-10-28T07:41:44.863Z,59.02
2017-10-28T07:44:12.641Z,58.66
2017-10-28T07:46:40.338Z,56.40
2017-10-28T07:49:08.228Z,56.79
2017-10-28T07:51:36.347Z,58.35
2017-10-28T07:54:04.043Z,56.86
2017-10-28T07:56:31.838Z,57.75
2017-10-28T07:58:59.604Z,58.66
2017-10-28T08:01:27.315Z,59.35
2017-10-28T08:04:00.696Z,56.88
2017-10-28T08:06:28.430Z,58.51
2017-10-28T08:08:56.220Z,57.59
2017-10-28T08:11:24.065Z,58.11
2017-10-28T08:13:51.888Z,59.65
2017-10-28T08:16:19.681Z,57.24
2017-10-28T08:18:47.481Z,57.98
2017-10-28T08:21:15.220Z,60.96
2017-10-28T08:23:42.973Z,58.20
2017-10-28T08:26:10.769Z,59.47
2017-10-28T08:28:38.481Z,58.69
2017-10-28T08:31:06.266Z,58.11
2017-10-28T08:33:34.223Z,57.25
2017-10-28T08:36:02.001Z,58.69
2017-10-28T08:38:29.907Z,59.25
2017-10-28T08:40:57.763Z,57.08
2017-10-28T08:43:25.495Z,57.83
2017-10-28T08:45:53.281Z,57.55
2017-10-28T08:48:21.140Z,57.73
2017-10-28T08:50:48.923Z,56.26
2017-10-28T08:53:16.751Z,57.34
2017-10-28T08:55:45.325Z,56.54
2017-10-28T08:58:13.110Z,56.84
2017-10-28T09:00:41.662Z,57.31
2017-10-28T09:03:09.697Z,57.08
2017-10-28T09:05:37.431Z,56.95
2017-10-28T09:08:05.188Z,55.58
2017-10-28T09:10:32.971Z,55.61
2017-10-28T09:13:00.724Z,56.80
2017-10-28T09:15:28.423Z,56.35
2017-10-28T09:17:57.115Z,55.32
2017-10-28T09:20:24.921Z,55.40
2017-10-28T09:22:52.667Z,54.57
2017-10-28T09:25:20.426Z,56.11
2017-10-28T09:27:48.247Z,55.03
2017-10-28T09:30:15.978Z,53.37
2017-10-28T09:32:43.688Z,55.15
2017-10-28T09:35:11.464Z,54.66
2017-10-28T09:37:39.180Z,54.61
2017-10-28T09:40:06.977Z,53.70
2017-10-28T09:42:34.768Z,54.56
2017-10-28T09:45:02.510Z,53.72
2017-10-28T09:47:30.358Z,54.08
2017-10-28T09:49:58.226Z,53.49
2017-10-28T09:52:26.005Z,53.10
2017-10-28T09:54:53.724Z,53.41
2017-10-28T09:57:21.610Z,52.97
2017-10-28T09:59:49.450Z,52.40
2017-10-28T10:02:17.203Z,53.79
2017-10-28T10:04:44.977Z,54.06
2017-10-28T10:07:13.437Z,52.94
2017-10-28T10:09:41.247Z,52.31
2017-10-28T10:12:10.143Z,51.34
2017-10-28T10:14:38.133Z,51.58
2017-10-28T10:17:05.909Z,52.67
2017-10-28T10:19:33.700Z,52.49
2017-10-28T10:22:01.490Z,53.51
2017-10-28T10:24:29.494Z,52.42
2017-10-28T10:26:57.686Z,53.02
2017-10-28T10:29:25.364Z,52.47
2017-10-28T10:31:53.113Z,52.62
2017-10-28T10:34:20.835Z,53.35
2017-10-28T10:36:48.551Z,49.90
2017-10-28T10:39:16.361Z,50.88
2017-10-28T10:41:44.202Z,52.35
2017-10-28T10:44:11.954Z,52.16
2017-10-28T10:46:39.661Z,52.65
2017-10-28T10:49:07.444Z,52.96
2017-10-28T10:51:35.181Z,52.37
2017-10-28T10:54:02.892Z,51.98
2017-10-28T10:56:30.687Z,52.26
2017-10-28T10:58:58.599Z,52.31
2017-10-28T11:01:26.337Z,52.34
2017-10-28T11:03:54.134Z,52.36
2017-10-28T11:06:21.905Z,52.10
2017-10-28T11:08:49.716Z,52.45
2017-10-28T11:11:17.418Z,50.83
2017-10-28T11:13:45.188Z,51.61
2017-10-28T11:16:12.965Z,52.09
2017-10-28T11:18:40.727Z,52.12
2017-10-28T11:21:08.461Z,51.24
2017-10-28T11:23:36.292Z,52.04
2017-10-28T11:26:04.078Z,52.66
2017-10-28T11:28:32.026Z,52.02
2017-10-28T11:30:59.838Z,52.16
2017-10-28T11:33:27.664Z,52.70
2017-10-28T11:35:55.468Z,51.21
2017-10-28T11:38:23.923Z,51.35
2017-10-28T11:40:51.864Z,52.13
2017-10-28T11:43:19.714Z,52.15
2017-10-28T11:45:47.571Z,51.50
2017-10-28T11:48:15.462Z,51.55
2017-10-28T11:50:43.391Z,50.37
2017-10-28T11:53:12.324Z,50.72
2017-10-28T11:55:40.203Z,50.92
2017-10-28T11:58:07.998Z,50.17
2017-10-28T12:00:35.773Z,51.42
2017-10-28T12:03:03.750Z,50.29
2017-10-28T12:05:31.507Z,49.45
2017-10-28T12:07:59.293Z,49.89
2017-10-28T12:10:27.149Z,49.56
2017-10-28T12:12:56.731Z,47.94
2017-10-28T12:15:24.525Z,48.27
2017-10-28T12:17:52.410Z,49.17
2017-10-28T12:20:20.233Z,47.30
2017-10-28T12:22:47.993Z,47.76
2017-10-28T12:25:16.058Z,47.35
2017-10-28T12:27:43.968Z,47.77
2017-10-28T12:30:12.111Z,47.37
2017-10-28T12:32:40.251Z,47.06
2017-10-28T12:35:07.979Z,48.11
2017-10-28T12:37:36.155Z,46.65
2017-10-28T12:40:03.915Z,45.99
2017-10-28T12:42:32.463Z,46.74
2017-10-28T12:45:00.298Z,47.20
2017-10-28T12:47:28.004Z,46.20
2017-10-28T12:49:55.781Z,47.79
2017-10-28T12:52:23.484Z,47.57
2017-10-28T12:54:51.815Z,48.80
2017-10-28T12:57:19.527Z,48.31
2017-10-28T12:59:47.305Z,46.66
2017-10-28T13:02:15.106Z,45.84
2017-10-28T13:04:42.920Z,46.89
2017-10-28T13:07:10.775Z,45.53
2017-10-28T13:09:39.451Z,45.47
2017-10-28T13:12:07.199Z,46.53
2017-10-28T13:14:35.063Z,46.95
2017-10-28T13:17:02.793Z,47.84
2017-10-28T13:19:30.542Z,46.84
2017-10-28T13:21:58.318Z,45.83
2017-10-28T13:24:26.084Z,45.46
2017-10-28T13:26:53.797Z,45.65
2017-10-28T13:29:21.694Z,44.78
2017-10-28T13:31:49.379Z,46.21
2017-10-28T13:34:17.144Z,47.75
2017-10-28T13:36:44.936Z,44.40
2017-10-28T13:39:13.207Z,46.43
2017-10-28T13:41:41.039Z,45.37
2017-10-28T13:44:09.279Z,45.10
2017-10-28T13:46:36.977Z,45.50
2017-10-28T13:49:04.687Z,44.72
2017-10-28T13:51:32.477Z,43.73
2017-10-28T13:54:00.193Z,45.12
2017-10-28T13:56:28.016Z,46.26
2017-10-28T13:58:55.727Z,44.77
2017-10-28T14:01:23.524Z,44.40
2017-10-28T14:03:51.264Z,45.26
2017-10-28T14:06:18.959Z,46.04
2017-10-28T14:08:46.692Z,44.55
2017-10-28T14:11:14.489Z,44.34
2017-10-28T14:13:42.219Z,45.21
2017-10-28T14:16:09.968Z,44.63
2017-10-28T14:18:37.775Z,44.61
2017-10-28T14:21:05.576Z,45.18
2017-10-28T14:23:33.278Z,45.42
2017-10-28T14:26:01.060Z,46.24
2017-10-28T14:28:28.751Z,45.44
2017-10-28T14:30:56.514Z,43.86
2017-10-28T14:33:25.431Z,44.13
2017-10-28T14:35:53.162Z,45.92
2017-10-28T14:38:20.880Z,48.78
2017-10-28T14:40:49.385Z,43.70
2017-10-28T14:43:17.151Z,44.33
2017-10-28T14:45:44.925Z,43.55
2017-10-28T14:48:12.723Z,44.90
2017-10-28T14:50:40.529Z,44.67
2017-10-28T14:53:08.277Z,45.38
2017-10-28T14:55:36.060Z,46.96
2017-10-28T14:58:03.785Z,45.61
2017-10-28T15:00:32.145Z,43.78
2017-10-28T15:03:00.157Z,44.13
2017-10-28T15:05:27.878Z,45.74
2017-10-28T15:07:55.671Z,48.48
2017-10-28T15:10:24.268Z,47.05
2017-10-28T15:12:52.124Z,46.42
2017-10-28T15:15:19.837Z,47.24
2017-10-28T15:17:47.570Z,47.55
2017-10-28T15:20:15.363Z,45.86
2017-10-28T15:22:43.151Z,46.91
2017-10-28T15:25:10.913Z,47.20
2017-10-28T15:27:38.757Z,48.40
2017-10-28T15:30:06.568Z,46.89
2017-10-28T15:32:34.317Z,48.76
2017-10-28T15:35:02.021Z,48.31
2017-10-28T15:37:29.775Z,48.68
2017-10-28T15:39:57.548Z,51.05
2017-10-28T15:42:25.246Z,49.18
2017-10-28T15:44:53.071Z,51.92
2017-10-28T15:47:20.889Z,50.00
2017-10-28T15:49:48.751Z,49.86
2017-10-28T15:52:16.486Z,48.10
2017-10-28T15:54:44.262Z,49.41
2017-10-28T15:57:12.816Z,48.73
2017-10-28T15:59:40.632Z,47.84
2017-10-28T16:02:09.321Z,51.31
2017-10-28T16:04:37.555Z,49.02
2017-10-28T16:07:06.609Z,51.25
2017-10-28T16:09:34.411Z,48.03
2017-10-28T16:12:02.140Z,48.27
2017-10-28T16:14:29.899Z,48.30
2017-10-28T16:16:57.639Z,47.45
2017-10-28T16:19:26.963Z,48.00
2017-10-28T16:21:54.760Z,50.46
2017-10-28T16:24:22.468Z,49.50
2017-10-28T16:26:50.242Z,47.20
2017-10-28T16:29:18.924Z,48.07
2017-10-28T16:31:47.976Z,48.62
2017-10-28T16:34:18.151Z,50.05
2017-10-28T16:36:45.939Z,47.91
2017-10-28T16:39:13.806Z,48.76
2017-10-28T16:41:41.536Z,46.26
2017-10-28T16:44:09.257Z,47.10
2017-10-28T16:46:37.167Z,47.51
2017-10-28T16:49:05.448Z,45.27
2017-10-28T16:51:34.004Z,46.43
2017-10-28T16:54:01.692Z,47.88
2017-10-28T16:56:29.750Z,50.12
2017-10-28T16:58:57.532Z,48.48
2017-10-28T17:01:25.267Z,46.11
2017-10-28T17:03:53.076Z,45.59
2017-10-28T17:06:20.869Z,47.35
2017-10-28T17:08:48.625Z,47.88
2017-10-28T17:11:16.548Z,46.81
2017-10-28T17:13:44.501Z,47.96
2017-10-28T17:16:12.272Z,44.18
2017-10-28T17:18:39.972Z,44.15
2017-10-28T17:21:07.769Z,45.28
2017-10-28T17:23:36.604Z,46.27
2017-10-28T17:26:04.726Z,46.80
2017-10-28T17:28:32.510Z,46.15
2017-10-28T17:31:00.269Z,49.27
2017-10-28T17:33:28.094Z,52.05
2017-10-28T17:35:55.806Z,48.27
2017-10-28T17:38:23.652Z,46.49
2017-10-28T17:40:51.372Z,44.36
2017-10-28T17:43:20.099Z,45.73
2017-10-28T17:45:47.928Z,45.67
2017-10-28T17:48:15.691Z,46.56
2017-10-28T17:50:43.441Z,47.70
2017-10-28T17:53:11.201Z,50.25
2017-10-28T17:55:39.018Z,46.70
2017-10-28T17:58:07.507Z,47.68
2017-10-28T18:00:35.505Z,41.11
2017-10-28T18:03:03.364Z,44.11
2017-10-28T18:05:31.174Z,43.42
2017-10-28T18:08:00.898Z,45.53
2017-10-28T18:10:28.983Z,47.71
2017-10-28T18:12:56.833Z,42.50
2017-10-28T18:15:24.994Z,43.24
2017-10-28T18:17:52.826Z,43.41
2017-10-28T18:20:21.160Z,45.15
2017-10-28T18:22:49.391Z,41.75
2017-10-28T18:25:17.376Z,39.35
2017-10-28T18:27:45.187Z,43.24
2017-10-28T18:30:13.112Z,40.77
2017-10-28T18:32:40.856Z,41.12
2017-10-28T18:35:08.947Z,38.70
2017-10-28T18:37:36.790Z,37.92
2017-10-28T18:40:04.825Z,38.59
2017-10-28T18:42:32.705Z,38.53
2017-10-28T18:45:00.846Z,37.30
2017-10-28T18:47:28.612Z,38.74
2017-10-28T18:49:56.560Z,41.91
2017-10-28T18:52:24.362Z,42.95
2017-10-28T18:54:52.180Z,41.29
2017-10-28T18:57:20.003Z,39.59
2017-10-28T18:59:47.760Z,40.32
2017-10-28T19:02:15.717Z,39.69
2017-10-28T19:04:43.779Z,40.31
2017-10-28T19:07:11.531Z,40.10
2017-10-28T19:09:39.285Z,43.69
2017-10-28T19:12:07.074Z,40.75
2017-10-28T19:14:34.831Z,42.45
2017-10-28T19:17:02.705Z,46.45
2017-10-28T19:19:30.431Z,49.26
2017-10-28T19:21:58.247Z,45.48
2017-10-28T19:24:25.994Z,45.16
2017-10-28T19:26:53.808Z,47.31
2017-10-28T19:29:21.603Z,45.99
2017-10-28T19:31:49.666Z,49.31
2017-10-28T19:34:17.505Z,43.79
2017-10-28T19:36:45.242Z,45.21
2017-10-28T19:39:13.080Z,46.33
2017-10-28T19:41:40.958Z,46.30
2017-10-28T19:44:09.380Z,46.84
2017-10-28T19:46:37.871Z,47.57
2017-10-28T19:49:05.730Z,47.21
2017-10-28T19:51:34.184Z,39.03
2017-10-28T19:54:02.227Z,37.17
2017-10-28T19:56:31.131Z,39.84
2017-10-28T19:59:00.709Z,39.07
2017-10-28T20:01:28.452Z,39.51
2017-10-28T20:03:56.428Z,43.96
2017-10-28T20:06:25.524Z,40.93
2017-10-28T20:08:53.314Z,41.55
2017-10-28T20:11:20.989Z,44.79
2017-10-28T20:13:48.727Z,36.69
2017-10-28T20:16:16.479Z,38.44
2017-10-28T20:18:45.074Z,36.04
2017-10-28T20:21:12.865Z,38.26
2017-10-28T20:23:40.609Z,37.01
2017-10-28T20:26:08.381Z,41.52
2017-10-28T20:28:36.200Z,38.72
2017-10-28T20:31:03.964Z,39.78
2017-10-28T20:33:31.820Z,42.70
2017-10-28T20:35:59.560Z,40.60
2017-10-28T20:38:27.437Z,37.36
2017-10-28T20:40:55.308Z,39.54
2017-10-28T20:43:23.020Z,40.46
2017-10-28T20:45:50.897Z,40.10
2017-10-28T20:48:18.640Z,36.13
2017-10-28T20:50:46.363Z,41.80
2017-10-28T20:53:14.215Z,36.01
2017-10-28T20:55:41.981Z,34.91
2017-10-28T20:58:09.760Z,37.02
2017-10-28T21:00:38.729Z,39.50
2017-10-28T21:03:07.970Z,44.66
2017-10-28T21:05:35.760Z,46.99
2017-10-28T21:08:03.522Z,48.90
2017-10-28T21:10:31.241Z,42.11
2017-10-28T21:12:59.301Z,45.69
2017-10-28T21:15:27.009Z,43.38
2017-10-28T21:17:54.923Z,42.80
2017-10-28T21:20:22.710Z,43.39
2017-10-28T21:22:50.474Z,37.67
2017-10-28T21:25:18.245Z,38.16
2017-10-28T21:27:45.940Z,38.88
2017-10-28T21:30:13.744Z,34.69
2017-10-28T21:32:41.532Z,34.02
2017-10-28T21:35:09.299Z,34.84
2017-10-28T21:37:36.989Z,36.13
2017-10-28T21:40:04.788Z,35.39
2017-10-28T21:42:32.520Z,34.80
2017-10-28T21:45:00.249Z,34.96
2017-10-28T21:47:27.960Z,38.31
2017-10-28T21:49:55.781Z,34.68
2017-10-28T21:52:23.627Z,34.46
2017-10-28T21:54:51.372Z,36.38
2017-10-28T21:57:19.225Z,35.52
2017-10-28T21:59:47.032Z,38.41
2017-10-28T22:02:14.750Z,41.73
2017-10-28T22:04:42.497Z,37.30
2017-10-28T22:07:10.273Z,38.87
2017-10-28T22:09:38.004Z,41.32
2017-10-28T22:12:06.030Z,39.68
2017-10-28T22:14:33.773Z,42.05
2017-10-28T22:17:01.504Z,42.49
2017-10-28T22:19:29.293Z,37.84
2017-10-28T22:21:56.990Z,39.27
2017-10-28T22:24:24.763Z,37.49
2017-10-28T22:26:52.514Z,36.87
2017-10-28T22:29:20.299Z,36.78
2017-10-28T22:31:48.081Z,35.81
2017-10-28T22:34:15.851Z,35.40
2017-10-28T22:36:43.571Z,35.13
2017-10-28T22:39:11.357Z,36.12
2017-10-28T22:41:39.153Z,35.68
2017-10-28T22:44:06.978Z,36.10
2017-10-28T22:46:34.678Z,35.81
2017-10-28T22:49:02.472Z,36.32
2017-10-28T22:51:30.234Z,37.03
2017-10-28T22:53:58.004Z,36.88
2017-10-28T22:56:25.789Z,37.33
2017-10-28T22:58:53.469Z,37.38
2017-10-28T23:01:21.248Z,37.78
2017-10-28T23:03:49.116Z,38.84
2017-10-28T23:06:16.930Z,40.38
2017-10-28T23:08:45.602Z,40.66
2017-10-28T23:11:13.309Z,41.15
2017-10-28T23:13:41.081Z,41.43
2017-10-28T23:16:08.795Z,42.22
2017-10-28T23:18:36.493Z,42.60
2017-10-28T23:21:04.845Z,43.90
2017-10-28T23:23:32.622Z,44.13
2017-10-28T23:26:00.310Z,43.76
2017-10-28T23:28:28.581Z,44.56
2017-10-28T23:30:57.395Z,45.27
2017-10-28T23:33:25.815Z,44.30
2017-10-28T23:35:53.570Z,44.03
2017-10-28T23:38:21.327Z,44.20
2017-10-28T23:40:49.152Z,44.44
2017-10-28T23:43:16.839Z,46.05
2017-10-28T23:45:44.829Z,47.09
2017-10-28T23:48:12.591Z,46.58
2017-10-28T23:50:40.720Z,48.22
2017-10-28T23:53:09.162Z,49.39
2017-10-28T23:55:37.000Z,51.26
2017-10-28T23:58:04.705Z,51.11
